Time;durP1;ratioP1;P1;durP2;ratioP2;P2;SDS_P1;SDS_P2;PMS_P1;PMS_P2;Temp;Humidity;BMP_temperature;BMP_pressure;BME280_temperature;BME280_humidity;BME280_pressure;Samples;Min_cycle;Max_cycle;Signal;HPM_P1;HPM_P2
2023/12/19 00:00:28;;;;;;;58.47;31.43;;;7.90;99.90;;;;;;5035712;28;20493;-79
2023/12/19 00:02:54;;;;;;;60.87;33.57;;;8.00;99.90;;;;;;5040621;28;20041;-79
2023/12/19 00:05:20;;;;;;;62.73;34.40;;;7.90;99.90;;;;;;5038972;28;20057;-78
2023/12/19 00:07:46;;;;;;;55.23;31.80;;;7.90;99.90;;;;;;5041480;28;20043;-78
2023/12/19 00:10:12;;;;;;;61.87;33.80;;;8.00;99.90;;;;;;5038548;28;21414;-78
2023/12/19 00:12:38;;;;;;;66.47;35.00;;;8.00;99.90;;;;;;5044302;28;20076;-79
2023/12/19 00:15:05;;;;;;;60.73;32.03;;;8.00;99.90;;;;;;5024526;28;20069;-79
2023/12/19 00:17:31;;;;;;;58.47;32.77;;;8.00;99.90;;;;;;5019286;28;20076;-79
2023/12/19 00:19:56;;;;;;;58.03;30.50;;;8.00;99.90;;;;;;5039404;28;20045;-78
2023/12/19 00:22:25;;;;;;;57.33;30.07;;;8.00;99.90;;;;;;5024635;28;20071;-79
2023/12/19 00:24:54;;;;;;;53.80;29.83;;;8.00;99.90;;;;;;5012449;28;20040;-78
2023/12/19 00:27:19;;;;;;;55.27;29.30;;;8.00;99.90;;;;;;5027302;28;20045;-79
2023/12/19 00:29:45;;;;;;;51.23;27.40;;;8.00;99.90;;;;;;5044323;28;20051;-79
2023/12/19 00:32:11;;;;;;;46.63;26.90;;;8.00;99.90;;;;;;5041377;28;20045;-79
2023/12/19 00:34:36;;;;;;;47.23;26.33;;;8.00;99.90;;;;;;5021342;28;20044;-78
2023/12/19 00:37:02;;;;;;;46.60;25.90;;;8.00;99.90;;;;;;5023135;28;20038;-78
2023/12/19 00:39:28;;;;;;;42.27;25.40;;;8.00;99.90;;;;;;5023625;28;20440;-79
2023/12/19 00:41:54;;;;;;;42.37;24.00;;;8.00;99.90;;;;;;5043356;28;20385;-79
2023/12/19 00:44:20;;;;;;;41.07;25.10;;;8.00;99.90;;;;;;5039972;28;20038;-78
2023/12/19 00:46:45;;;;;;;48.90;27.10;;;8.00;99.90;;;;;;5024976;28;20056;-78
2023/12/19 00:49:12;;;;;;;45.83;25.03;;;8.00;99.90;;;;;;5043761;28;20620;-78
2023/12/19 00:51:38;;;;;;;43.80;25.87;;;8.00;99.90;;;;;;5047696;28;20433;-78
2023/12/19 00:54:04;;;;;;;44.40;26.20;;;8.00;99.90;;;;;;5026316;28;20046;-79
2023/12/19 00:56:30;;;;;;;43.57;26.23;;;8.00;99.90;;;;;;5039375;28;20049;-78
2023/12/19 00:58:56;;;;;;;47.33;26.97;;;8.00;99.90;;;;;;5039350;28;20079;-78
2023/12/19 01:01:23;;;;;;;43.00;25.83;;;8.00;99.90;;;;;;5026058;28;20033;-77
2023/12/19 01:03:49;;;;;;;49.03;26.00;;;8.00;99.90;;;;;;5045129;28;20044;-79
2023/12/19 01:06:14;;;;;;;44.97;26.47;;;8.00;99.90;;;;;;5041682;28;20045;-78
2023/12/19 01:08:40;;;;;;;45.20;25.87;;;8.00;99.90;;;;;;5038548;28;20098;-77
2023/12/19 01:11:09;;;;;;;40.87;24.27;;;8.00;99.90;;;;;;5046492;28;20075;-78
2023/12/19 01:13:35;;;;;;;45.10;26.10;;;8.00;99.90;;;;;;5042512;28;20085;-77
2023/12/19 01:16:01;;;;;;;49.30;26.27;;;8.00;99.90;;;;;;5013989;28;20065;-78
2023/12/19 01:18:27;;;;;;;45.53;25.47;;;8.00;99.90;;;;;;5025573;28;20104;-78
2023/12/19 01:20:53;;;;;;;46.30;25.77;;;7.90;99.90;;;;;;5026207;28;20125;-78
2023/12/19 01:23:18;;;;;;;42.37;24.07;;;8.00;99.90;;;;;;5046723;28;20040;-78
2023/12/19 01:25:44;;;;;;;41.40;23.73;;;8.00;99.90;;;;;;5045743;28;20471;-79
2023/12/19 01:28:11;;;;;;;39.23;23.27;;;8.00;99.90;;;;;;5029543;28;20088;-78
2023/12/19 01:30:37;;;;;;;38.40;23.57;;;8.00;99.90;;;;;;5023891;28;20045;-78
2023/12/19 01:33:03;;;;;;;36.60;22.67;;;8.00;99.90;;;;;;5028538;28;20037;-79
2023/12/19 01:35:28;;;;;;;38.47;23.20;;;8.00;99.90;;;;;;5042605;28;20041;-78
2023/12/19 01:37:54;;;;;;;35.67;22.90;;;8.00;99.90;;;;;;5042237;28;20444;-78
2023/12/19 01:40:20;;;;;;;37.40;22.30;;;8.00;99.90;;;;;;5045895;28;20045;-76
2023/12/19 01:42:46;;;;;;;32.60;19.93;;;8.00;99.90;;;;;;5039866;28;20076;-78
2023/12/19 01:45:13;;;;;;;34.77;21.63;;;8.00;99.90;;;;;;5026270;28;20045;-78
2023/12/19 01:47:44;;;;;;;38.17;21.13;;;8.00;99.90;;;;;;5047446;28;20431;-79
2023/12/19 01:50:15;;;;;;;33.63;20.47;;;8.00;99.90;;;;;;5047261;28;20045;-77
2023/12/19 01:52:56;;;;;;;33.80;20.02;;;8.00;99.90;;;;;;5041937;28;20064;-78
2023/12/19 01:55:26;;;;;;;29.73;19.40;;;8.00;99.90;;;;;;5042575;28;20057;-78
2023/12/19 01:57:56;;;;;;;26.73;17.00;;;8.00;99.90;;;;;;5028856;28;20041;-77
2023/12/19 02:00:23;;;;;;;27.30;17.93;;;8.00;99.90;;;;;;5037323;28;20041;-78
2023/12/19 02:02:52;;;;;;;25.47;17.07;;;8.00;99.90;;;;;;5049184;28;20041;-77
2023/12/19 02:05:19;;;;;;;28.87;18.23;;;7.90;99.90;;;;;;5044008;28;20053;-78
2023/12/19 02:07:45;;;;;;;27.97;17.77;;;7.90;99.90;;;;;;5047364;28;20041;-78
2023/12/19 02:10:12;;;;;;;25.63;16.87;;;7.80;99.90;;;;;;5028471;28;20048;-78
2023/12/19 02:12:38;;;;;;;27.57;17.97;;;7.80;99.90;;;;;;5038534;28;20037;-78
2023/12/19 02:15:05;;;;;;;23.17;15.53;;;7.80;99.90;;;;;;5045723;28;20059;-78
2023/12/19 02:17:31;;;;;;;24.47;16.83;;;7.80;99.90;;;;;;5025169;28;20052;-78
2023/12/19 02:19:57;;;;;;;23.80;15.57;;;7.70;99.90;;;;;;5032354;28;20042;-78
2023/12/19 02:22:22;;;;;;;24.17;16.10;;;7.70;99.90;;;;;;5042295;28;20041;-78
2023/12/19 02:24:48;;;;;;;23.90;15.20;;;7.70;99.90;;;;;;5046637;28;20076;-79
2023/12/19 02:27:16;;;;;;;23.27;16.70;;;7.70;99.90;;;;;;5023864;28;20209;-78
2023/12/19 02:29:41;;;;;;;24.97;16.47;;;7.70;99.90;;;;;;5043390;28;20067;-77
2023/12/19 02:32:07;;;;;;;22.70;15.77;;;7.70;99.90;;;;;;5045079;28;20045;-78
2023/12/19 02:34:33;;;;;;;21.73;16.27;;;7.60;99.90;;;;;;5005121;28;20054;-78
2023/12/19 02:36:58;;;;;;;25.13;16.20;;;7.70;99.90;;;;;;5033252;28;20044;-78
2023/12/19 02:39:24;;;;;;;20.37;15.00;;;7.60;99.90;;;;;;5026191;28;20037;-78
2023/12/19 02:41:50;;;;;;;24.87;16.47;;;7.60;99.90;;;;;;5034083;28;20065;-79
2023/12/19 02:44:15;;;;;;;23.80;16.53;;;7.60;99.90;;;;;;5044140;28;20086;-77
2023/12/19 02:46:41;;;;;;;23.07;15.37;;;7.60;99.90;;;;;;5019341;28;20101;-79
2023/12/19 02:49:07;;;;;;;21.63;15.20;;;7.60;99.90;;;;;;5049148;28;20045;-77
2023/12/19 02:51:33;;;;;;;24.43;16.33;;;7.60;99.90;;;;;;5023054;28;20516;-78
2023/12/19 02:53:58;;;;;;;25.07;16.40;;;7.60;99.90;;;;;;5043499;28;20057;-79
2023/12/19 02:56:25;;;;;;;22.53;15.07;;;7.60;99.90;;;;;;5024145;28;20258;-79
2023/12/19 02:58:51;;;;;;;20.17;13.70;;;7.60;99.90;;;;;;5027020;28;20057;-78
2023/12/19 03:01:16;;;;;;;22.47;15.20;;;7.60;99.90;;;;;;5042589;28;20063;-78
2023/12/19 03:03:44;;;;;;;20.53;14.10;;;7.60;99.90;;;;;;5015622;28;20033;-79
2023/12/19 03:06:13;;;;;;;21.37;14.60;;;7.60;99.90;;;;;;5024133;28;20044;-78
2023/12/19 03:08:43;;;;;;;19.30;13.67;;;7.60;99.90;;;;;;5044935;28;20106;-78
2023/12/19 03:11:08;;;;;;;20.80;14.37;;;7.60;99.90;;;;;;5053857;28;20112;-78
2023/12/19 03:13:34;;;;;;;19.60;13.47;;;7.60;99.90;;;;;;5046556;28;20076;-77
2023/12/19 03:16:00;;;;;;;20.37;14.43;;;7.50;99.90;;;;;;5010025;28;20032;-77
2023/12/19 03:18:25;;;;;;;18.07;12.87;;;7.50;99.90;;;;;;5043148;28;20045;-78
2023/12/19 03:20:52;;;;;;;18.70;13.60;;;7.50;99.90;;;;;;5012933;28;20092;-78
2023/12/19 03:23:18;;;;;;;19.90;12.67;;;7.50;99.90;;;;;;5036957;28;20033;-78
2023/12/19 03:25:45;;;;;;;19.83;13.17;;;7.50;99.90;;;;;;5027676;28;20045;-78
2023/12/19 03:28:10;;;;;;;18.40;13.20;;;7.50;99.90;;;;;;5021048;28;20045;-77
2023/12/19 03:30:36;;;;;;;19.03;13.80;;;7.50;99.90;;;;;;5022247;28;20049;-77
2023/12/19 03:33:02;;;;;;;18.37;13.07;;;7.50;99.90;;;;;;5015820;28;20067;-77
2023/12/19 03:35:28;;;;;;;19.03;13.20;;;7.50;99.90;;;;;;5042574;28;20131;-77
2023/12/19 03:37:53;;;;;;;20.07;13.37;;;7.50;99.90;;;;;;5021126;28;20047;-77
2023/12/19 03:40:19;;;;;;;19.80;13.50;;;7.50;99.90;;;;;;5025262;28;20041;-78
2023/12/19 03:42:45;;;;;;;19.57;13.23;;;7.50;99.90;;;;;;5037634;28;20041;-78
2023/12/19 03:45:11;;;;;;;20.70;14.63;;;7.50;99.90;;;;;;5021518;28;20425;-77
2023/12/19 03:47:38;;;;;;;21.43;14.47;;;7.50;99.90;;;;;;5049704;28;20055;-78
2023/12/19 03:50:05;;;;;;;21.13;14.60;;;7.50;99.90;;;;;;5038139;28;20063;-78
2023/12/19 03:52:30;;;;;;;17.43;13.50;;;7.50;99.90;;;;;;5023387;28;20041;-77
2023/12/19 03:54:56;;;;;;;19.83;13.43;;;7.60;99.90;;;;;;5040950;28;20111;-78
2023/12/19 03:57:22;;;;;;;18.17;12.87;;;7.50;99.90;;;;;;5046113;28;20176;-78
2023/12/19 03:59:48;;;;;;;18.70;12.83;;;7.50;99.90;;;;;;5024838;28;20065;-78
2023/12/19 04:02:13;;;;;;;19.30;13.40;;;7.50;99.90;;;;;;5043706;28;20061;-78
2023/12/19 04:04:39;;;;;;;16.77;12.60;;;7.50;99.90;;;;;;5018894;28;20096;-78
2023/12/19 04:07:05;;;;;;;19.07;13.03;;;7.50;99.90;;;;;;5040411;28;20045;-78
2023/12/19 04:09:31;;;;;;;19.83;13.30;;;7.50;99.90;;;;;;5028963;28;20556;-77
2023/12/19 04:12:01;;;;;;;16.97;12.30;;;7.50;99.90;;;;;;5020843;28;20083;-78
2023/12/19 04:14:30;;;;;;;20.77;13.87;;;7.50;99.90;;;;;;5042239;28;20427;-78
2023/12/19 04:16:56;;;;;;;22.30;13.93;;;7.50;99.90;;;;;;5019645;28;20045;-78
2023/12/19 04:19:22;;;;;;;21.63;14.27;;;7.50;99.90;;;;;;5005833;28;20114;-78
2023/12/19 04:21:48;;;;;;;19.93;14.13;;;7.50;99.90;;;;;;5037109;28;20053;-78
2023/12/19 04:24:14;;;;;;;19.33;13.23;;;7.50;99.90;;;;;;5020267;28;20079;-79
2023/12/19 04:26:41;;;;;;;20.60;14.67;;;7.50;99.90;;;;;;5040930;28;20053;-78
2023/12/19 04:29:08;;;;;;;20.50;13.77;;;7.50;99.90;;;;;;5022394;28;20046;-78
2023/12/19 04:31:33;;;;;;;22.17;14.23;;;7.50;99.90;;;;;;5043384;28;20048;-78
2023/12/19 04:33:59;;;;;;;18.60;14.20;;;7.50;99.90;;;;;;5020957;28;20048;-78
2023/12/19 04:36:25;;;;;;;19.20;13.43;;;7.50;99.90;;;;;;5043933;28;20045;-79
2023/12/19 04:38:52;;;;;;;19.27;13.60;;;7.50;99.90;;;;;;5040146;28;20049;-78
2023/12/19 04:41:17;;;;;;;22.33;14.67;;;7.50;99.90;;;;;;5025472;28;20048;-78
2023/12/19 04:43:43;;;;;;;17.43;13.13;;;7.50;99.90;;;;;;5041520;28;20136;-78
2023/12/19 04:46:09;;;;;;;20.17;13.47;;;7.50;99.90;;;;;;5045399;28;20033;-78
2023/12/19 04:48:34;;;;;;;20.00;12.40;;;7.50;99.90;;;;;;5026895;28;20054;-78
2023/12/19 04:51:00;;;;;;;18.67;12.20;;;7.50;99.90;;;;;;5044164;28;20048;-79
2023/12/19 04:53:27;;;;;;;18.50;12.13;;;7.50;99.90;;;;;;5043158;28;20076;-79
2023/12/19 04:55:53;;;;;;;17.63;11.77;;;7.50;99.90;;;;;;5026639;28;20044;-78
2023/12/19 04:58:19;;;;;;;16.33;11.17;;;7.50;99.90;;;;;;5033229;28;20125;-78
2023/12/19 05:00:47;;;;;;;16.97;11.60;;;7.50;99.90;;;;;;5046045;28;20156;-79
2023/12/19 05:03:12;;;;;;;14.30;10.67;;;7.50;99.90;;;;;;5015659;28;20108;-78
2023/12/19 05:05:38;;;;;;;15.17;11.03;;;7.50;99.90;;;;;;5049809;28;20053;-79
2023/12/19 05:08:04;;;;;;;14.40;9.83;;;7.50;99.90;;;;;;5039029;28;20045;-78
2023/12/19 05:10:30;;;;;;;15.30;10.63;;;7.40;99.90;;;;;;5029327;28;20175;-78
2023/12/19 05:12:56;;;;;;;17.80;10.70;;;7.50;99.90;;;;;;5046832;28;20103;-79
2023/12/19 05:15:21;;;;;;;16.13;10.97;;;7.50;99.90;;;;;;5051302;28;20041;-79
2023/12/19 05:17:47;;;;;;;14.90;10.60;;;7.50;99.90;;;;;;5046591;28;20044;-78
2023/12/19 05:20:13;;;;;;;15.77;10.57;;;7.50;99.90;;;;;;5028214;28;20041;-78
2023/12/19 05:22:38;;;;;;;16.00;11.13;;;7.50;99.90;;;;;;5013420;28;20207;-79
2023/12/19 05:25:06;;;;;;;15.53;10.50;;;7.50;99.90;;;;;;5043757;28;20044;-79
2023/12/19 05:27:31;;;;;;;13.73;10.43;;;7.50;99.90;;;;;;5042695;28;20561;-78
2023/12/19 05:29:57;;;;;;;13.57;9.67;;;7.50;99.90;;;;;;5011217;28;20308;-79
2023/12/19 05:32:23;;;;;;;13.23;9.33;;;7.50;99.90;;;;;;5024692;28;20496;-79
2023/12/19 05:34:48;;;;;;;13.20;9.07;;;7.50;99.90;;;;;;5039739;28;20053;-78
2023/12/19 05:37:14;;;;;;;14.97;9.83;;;7.50;99.90;;;;;;5032046;28;20037;-78
2023/12/19 05:39:42;;;;;;;14.80;9.03;;;7.60;99.90;;;;;;5050273;28;20171;-79
2023/12/19 05:42:08;;;;;;;15.10;10.30;;;7.60;99.90;;;;;;5045502;28;20045;-77
2023/12/19 05:44:34;;;;;;;14.13;9.53;;;7.50;99.90;;;;;;5031632;28;20048;-77
2023/12/19 05:47:00;;;;;;;14.13;10.27;;;7.50;99.90;;;;;;5021076;28;20048;-82
2023/12/19 05:49:25;;;;;;;12.53;9.30;;;7.50;99.90;;;;;;5049642;28;20038;-79
2023/12/19 05:51:51;;;;;;;15.97;9.93;;;7.50;99.90;;;;;;4994574;28;20459;-78
2023/12/19 05:54:17;;;;;;;13.30;9.63;;;7.50;99.90;;;;;;5037717;28;20041;-81
2023/12/19 05:56:42;;;;;;;14.50;8.97;;;7.60;99.90;;;;;;5014694;28;20044;-81
2023/12/19 05:59:08;;;;;;;14.23;8.87;;;7.50;99.90;;;;;;5046379;28;20069;-83
2023/12/19 06:01:41;;;;;;;12.33;9.23;;;7.60;99.90;;;;;;5033275;28;20240;-81
2023/12/19 06:04:07;;;;;;;15.03;9.90;;;7.60;99.90;;;;;;5049870;28;20049;-80
2023/12/19 06:06:34;;;;;;;14.43;10.20;;;7.60;99.90;;;;;;4990599;28;20053;-81
2023/12/19 06:09:00;;;;;;;11.43;8.40;;;7.50;99.90;;;;;;5039902;28;20061;-81
2023/12/19 06:11:26;;;;;;;14.03;9.17;;;7.50;99.90;;;;;;5039764;28;20037;-81
2023/12/19 06:13:52;;;;;;;11.77;8.17;;;7.60;99.90;;;;;;5051352;28;20143;-80
2023/12/19 06:16:19;;;;;;;13.60;9.07;;;7.50;99.90;;;;;;5045747;28;20042;-81
2023/12/19 06:18:45;;;;;;;12.10;8.50;;;7.60;99.90;;;;;;5021021;28;20049;-81
2023/12/19 06:21:10;;;;;;;12.93;8.63;;;7.50;99.90;;;;;;5009017;28;20072;-76
2023/12/19 06:23:36;;;;;;;11.93;8.67;;;7.60;99.90;;;;;;4975777;28;20054;-78
2023/12/19 06:26:02;;;;;;;12.93;8.70;;;7.60;99.90;;;;;;4990834;28;20352;-81
2023/12/19 06:28:28;;;;;;;12.53;8.30;;;7.60;99.90;;;;;;4992246;28;20050;-79
2023/12/19 06:30:53;;;;;;;12.57;8.63;;;7.60;99.90;;;;;;4989539;28;20567;-80
2023/12/19 06:33:19;;;;;;;13.57;8.53;;;7.60;99.90;;;;;;5007615;28;20159;-80
2023/12/19 06:35:51;;;;;;;13.33;9.00;;;7.60;99.90;;;;;;5007605;28;20068;-80
2023/12/19 06:38:18;;;;;;;11.93;8.63;;;7.60;99.90;;;;;;4990250;28;20464;-80
2023/12/19 06:40:43;;;;;;;14.47;9.13;;;7.60;99.90;;;;;;5009150;28;20046;-75
2023/12/19 06:43:10;;;;;;;13.77;9.37;;;7.60;99.90;;;;;;4973003;28;20515;-79
2023/12/19 06:45:37;;;;;;;15.60;9.90;;;7.60;99.90;;;;;;4986102;28;20053;-79
2023/12/19 06:48:03;;;;;;;13.13;9.20;;;7.60;99.90;;;;;;5004670;28;20064;-79
2023/12/19 06:50:29;;;;;;;14.23;9.23;;;7.60;99.90;;;;;;5011487;28;20049;-80
2023/12/19 06:52:55;;;;;;;14.80;10.20;;;7.60;99.90;;;;;;5042403;28;20040;-80
2023/12/19 06:55:21;;;;;;;14.63;9.67;;;7.50;99.90;;;;;;5066609;28;20052;-81
2023/12/19 06:57:47;;;;;;;14.90;9.37;;;7.50;99.90;;;;;;5045239;28;20056;-81
2023/12/19 07:00:13;;;;;;;14.63;9.83;;;7.60;99.90;;;;;;5030889;28;20045;-80
2023/12/19 07:02:41;;;;;;;14.53;10.07;;;7.60;99.90;;;;;;5036798;28;20741;-81
2023/12/19 07:05:07;;;;;;;15.40;9.67;;;7.60;99.90;;;;;;5031850;28;20099;-81
2023/12/19 07:07:33;;;;;;;14.43;9.97;;;7.60;99.90;;;;;;5064879;28;20099;-81
2023/12/19 07:09:59;;;;;;;16.80;10.47;;;7.60;99.90;;;;;;5052304;28;20049;-81
2023/12/19 07:12:25;;;;;;;15.83;10.67;;;7.60;99.90;;;;;;5031437;28;20048;-81
2023/12/19 07:14:50;;;;;;;18.67;10.80;;;7.60;99.90;;;;;;5067294;28;20641;-81
2023/12/19 07:17:16;;;;;;;14.50;10.00;;;7.60;99.90;;;;;;5026973;28;20138;-81
2023/12/19 07:19:43;;;;;;;16.17;10.20;;;7.60;99.90;;;;;;5034972;28;20040;-82
2023/12/19 07:22:09;;;;;;;16.43;10.30;;;7.60;99.90;;;;;;5065568;28;20052;-81
2023/12/19 07:24:34;;;;;;;15.47;9.77;;;7.60;99.90;;;;;;5045438;28;20049;-80
2023/12/19 07:27:00;;;;;;;13.43;9.00;;;7.60;99.90;;;;;;5046479;28;20059;-81
2023/12/19 07:29:26;;;;;;;14.00;8.50;;;7.60;99.90;;;;;;5064114;28;20071;-82
2023/12/19 07:31:51;;;;;;;13.70;9.13;;;7.60;99.90;;;;;;5032101;28;20062;-82
2023/12/19 07:34:17;;;;;;;12.57;8.57;;;7.60;99.90;;;;;;5069128;28;20041;-82
2023/12/19 07:36:45;;;;;;;13.50;8.93;;;7.60;99.90;;;;;;5052489;28;20048;-81
2023/12/19 07:39:11;;;;;;;13.53;8.50;;;7.70;99.90;;;;;;5064452;28;20068;-81
2023/12/19 07:41:37;;;;;;;12.43;8.40;;;7.70;99.90;;;;;;5052134;28;20051;-82
2023/12/19 07:44:09;;;;;;;13.30;9.23;;;7.70;99.90;;;;;;5043039;28;20128;-81
2023/12/19 07:46:39;;;;;;;11.93;8.32;;;7.70;99.90;;;;;;5035743;28;20041;-81
2023/12/19 07:49:05;;;;;;;14.37;9.47;;;7.70;99.90;;;;;;5065355;28;20060;-77
2023/12/19 07:51:30;;;;;;;14.53;9.60;;;7.70;99.90;;;;;;5009141;28;20045;-78
2023/12/19 07:53:56;;;;;;;13.80;9.70;;;7.70;99.90;;;;;;5031795;28;20049;-76
2023/12/19 07:56:22;;;;;;;17.17;10.27;;;7.70;99.90;;;;;;5008990;28;20536;-76
2023/12/19 07:58:47;;;;;;;15.47;9.83;;;7.80;99.90;;;;;;5002193;28;20049;-77
2023/12/19 08:01:14;;;;;;;14.77;10.43;;;7.80;99.90;;;;;;5015499;28;20063;-78
2023/12/19 08:03:42;;;;;;;14.37;9.33;;;7.80;99.90;;;;;;5062892;28;20104;-78
2023/12/19 08:06:08;;;;;;;13.47;9.30;;;7.80;99.90;;;;;;5026585;28;20053;-79
2023/12/19 08:08:34;;;;;;;16.03;10.10;;;7.80;99.90;;;;;;5000271;28;20137;-78
2023/12/19 08:11:00;;;;;;;13.87;9.47;;;7.80;99.90;;;;;;5061600;28;20061;-78
2023/12/19 08:13:26;;;;;;;14.47;9.60;;;7.90;99.90;;;;;;5011683;28;20087;-79
2023/12/19 08:15:52;;;;;;;13.43;9.00;;;7.90;99.90;;;;;;5061353;28;20052;-78
2023/12/19 08:18:20;;;;;;;12.03;9.17;;;7.90;99.90;;;;;;5026511;28;20348;-78
2023/12/19 08:20:46;;;;;;;12.20;9.23;;;7.90;99.90;;;;;;5047703;28;20040;-78
2023/12/19 08:23:12;;;;;;;12.03;8.80;;;7.90;99.90;;;;;;5033491;28;20041;-79
2023/12/19 08:25:40;;;;;;;14.70;9.37;;;7.90;99.90;;;;;;5047819;28;20101;-78
2023/12/19 08:28:06;;;;;;;13.50;8.93;;;7.90;99.90;;;;;;5032217;28;20049;-78
2023/12/19 08:30:32;;;;;;;12.13;8.30;;;8.00;99.90;;;;;;5026665;28;20067;-78
2023/12/19 08:32:57;;;;;;;11.43;8.53;;;8.00;99.90;;;;;;5014818;28;20427;-78
2023/12/19 08:35:24;;;;;;;11.57;8.27;;;8.00;99.90;;;;;;5029726;28;20068;-79
2023/12/19 08:37:50;;;;;;;12.77;9.13;;;8.00;99.90;;;;;;5048803;28;20484;-78
2023/12/19 08:40:16;;;;;;;12.63;8.40;;;8.00;99.90;;;;;;5057538;28;20048;-79
2023/12/19 08:42:42;;;;;;;10.97;8.40;;;8.10;99.90;;;;;;5021832;28;20113;-78
2023/12/19 08:45:19;;;;;;;12.53;8.60;;;8.10;99.90;;;;;;5063011;28;20110;-79
2023/12/19 08:47:46;;;;;;;12.27;8.77;;;8.10;99.90;;;;;;5062335;28;20044;-78
2023/12/19 08:50:12;;;;;;;11.13;8.47;;;8.10;99.90;;;;;;5063220;28;20049;-78
2023/12/19 08:52:40;;;;;;;13.17;8.77;;;8.10;99.90;;;;;;5028205;28;20431;-79
2023/12/19 08:55:10;;;;;;;12.03;8.40;;;8.20;99.90;;;;;;5042039;28;20541;-79
2023/12/19 08:57:42;;;;;;;12.30;8.37;;;8.10;99.90;;;;;;5026555;28;20045;-79
2023/12/19 09:00:12;;;;;;;11.90;8.00;;;8.20;99.90;;;;;;5042854;28;20140;-78
2023/12/19 09:02:44;;;;;;;10.83;7.43;;;8.20;99.90;;;;;;5036646;28;20076;-79
2023/12/19 09:05:11;;;;;;;10.47;7.87;;;8.20;99.90;;;;;;5025970;28;20049;-79
2023/12/19 09:07:37;;;;;;;10.17;7.60;;;8.20;99.90;;;;;;5022951;28;20062;-78
2023/12/19 09:10:03;;;;;;;10.33;7.10;;;8.30;99.90;;;;;;5020368;28;20076;-79
2023/12/19 09:12:29;;;;;;;10.23;7.20;;;8.30;99.90;;;;;;5046140;28;20591;-79
2023/12/19 09:14:55;;;;;;;10.13;7.13;;;8.30;99.90;;;;;;5036896;28;20117;-79
2023/12/19 09:17:20;;;;;;;8.70;6.87;;;8.40;99.90;;;;;;5001672;28;20056;-78
2023/12/19 09:19:46;;;;;;;10.27;7.10;;;8.40;99.90;;;;;;5046032;28;20041;-78
2023/12/19 09:22:12;;;;;;;9.07;6.83;;;8.40;99.90;;;;;;5045694;28;20072;-79
2023/12/19 09:24:37;;;;;;;9.27;7.13;;;8.40;99.90;;;;;;5028036;28;20100;-79
2023/12/19 09:27:03;;;;;;;11.77;7.37;;;8.40;99.90;;;;;;5021518;28;20044;-79
2023/12/19 09:29:29;;;;;;;11.10;6.97;;;8.50;99.90;;;;;;5028745;28;20075;-78
2023/12/19 09:31:56;;;;;;;8.47;6.87;;;8.50;99.90;;;;;;5068996;28;20059;-79
2023/12/19 09:34:21;;;;;;;9.43;6.97;;;8.50;99.90;;;;;;5045430;28;20041;-79
2023/12/19 09:36:47;;;;;;;9.67;6.97;;;8.50;99.90;;;;;;5027943;28;20057;-78
2023/12/19 09:39:16;;;;;;;10.53;7.73;;;8.50;99.90;;;;;;5008958;28;20044;-79
2023/12/19 09:41:45;;;;;;;8.53;6.73;;;8.60;99.90;;;;;;5032564;28;20040;-79
2023/12/19 09:44:11;;;;;;;11.57;8.27;;;8.60;99.90;;;;;;5040153;28;20386;-79
2023/12/19 09:46:38;;;;;;;11.30;7.77;;;8.60;99.90;;;;;;5013747;28;20127;-79
2023/12/19 09:49:04;;;;;;;10.87;8.00;;;8.60;99.90;;;;;;5043076;28;20440;-79
2023/12/19 09:51:34;;;;;;;11.27;8.23;;;8.60;99.90;;;;;;5054936;28;20076;-79
2023/12/19 09:54:00;;;;;;;14.10;8.87;;;8.60;99.90;;;;;;5017570;28;20094;-79
2023/12/19 09:56:28;;;;;;;12.77;8.83;;;8.70;99.90;;;;;;5071781;28;20075;-78
2023/12/19 09:58:55;;;;;;;14.90;9.47;;;8.70;99.90;;;;;;5063188;28;20127;-79
2023/12/19 10:01:20;;;;;;;11.60;8.33;;;8.70;99.90;;;;;;5051170;28;20079;-78
2023/12/19 10:03:49;;;;;;;13.17;9.40;;;8.70;99.90;;;;;;5022126;28;20045;-78
2023/12/19 10:06:18;;;;;;;14.20;8.70;;;8.70;99.90;;;;;;5012747;28;20101;-78
2023/12/19 10:08:44;;;;;;;16.87;9.30;;;8.70;99.90;;;;;;5047317;28;20109;-79
2023/12/19 10:11:18;;;;;;;10.53;8.20;;;8.70;99.90;;;;;;5051187;28;21084;-80
2023/12/19 10:13:47;;;;;;;13.10;9.07;;;8.80;99.90;;;;;;5039903;28;20057;-79
2023/12/19 10:16:20;;;;;;;12.63;8.53;;;8.80;99.90;;;;;;5055146;28;20045;-77
2023/12/19 10:18:56;;;;;;;13.63;9.63;;;8.80;99.90;;;;;;5040735;28;20298;-79
2023/12/19 10:21:24;;;;;;;14.77;9.70;;;8.80;99.90;;;;;;5055496;28;20101;-79
2023/12/19 10:23:50;;;;;;;12.97;9.63;;;8.80;99.90;;;;;;5049267;28;20059;-79
2023/12/19 10:26:22;;;;;;;15.77;10.47;;;8.80;99.90;;;;;;5045539;28;20100;-79
2023/12/19 10:28:56;;;;;;;13.65;8.82;;;8.80;99.90;;;;;;5053180;28;20074;-79
2023/12/19 10:31:24;;;;;;;12.37;8.77;;;8.80;99.90;;;;;;5049934;28;20094;-79
2023/12/19 10:33:56;;;;;;;13.67;8.60;;;8.80;99.90;;;;;;5050707;28;20107;-79
2023/12/19 10:36:25;;;;;;;;;;;8.90;99.90;;;;;;5041588;28;20045;-79
2023/12/19 10:38:52;;;;;;;13.27;9.23;;;8.90;99.90;;;;;;5018500;28;19921;-79
2023/12/19 10:41:32;;;;;;;10.77;8.67;;;8.90;99.90;;;;;;5036659;28;20498;-79
2023/12/19 10:43:59;;;;;;;11.27;8.20;;;8.90;99.90;;;;;;5022608;28;20448;-77
2023/12/19 10:46:32;;;;;;;12.17;7.97;;;8.90;99.90;;;;;;5028590;28;20086;-80
2023/12/19 10:48:59;;;;;;;10.37;8.03;;;8.90;99.90;;;;;;5053080;28;20135;-80
2023/12/19 10:51:41;;;;;;;10.97;8.00;;;9.00;99.90;;;;;;5031128;28;20040;-79
2023/12/19 10:54:17;;;;;;;10.23;7.53;;;9.00;99.90;;;;;;5034578;28;20045;-79
2023/12/19 10:57:06;;;;;;;10.70;8.03;;;9.00;99.90;;;;;;5035674;28;20036;-80
2023/12/19 10:59:58;;;;;;;9.30;7.37;;;9.00;99.90;;;;;;5036431;28;20064;-78
2023/12/19 11:02:36;;;;;;;9.05;7.10;;;8.90;99.90;;;;;;5032626;28;20067;-81
2023/12/19 11:05:16;;;;;;;9.53;7.87;;;9.00;99.90;;;;;;5029726;28;20401;-81
2023/12/19 11:07:43;;;;;;;9.87;8.00;;;8.90;99.90;;;;;;5041051;28;20061;-81
2023/12/19 11:10:10;;;;;;;11.10;8.17;;;9.00;99.90;;;;;;5053268;28;20048;-81
2023/12/19 11:12:37;;;;;;;10.77;8.40;;;8.90;99.90;;;;;;5037038;28;20452;-80
2023/12/19 11:15:05;;;;;;;10.67;8.37;;;9.00;99.90;;;;;;5058023;28;20053;-80
2023/12/19 11:17:38;;;;;;;10.37;7.87;;;9.00;99.90;;;;;;5032467;28;20049;-81
2023/12/19 11:20:19;;;;;;;11.47;8.40;;;9.00;99.90;;;;;;5061696;28;20044;-81
2023/12/19 11:22:59;;;;;;;11.87;8.87;;;9.00;99.90;;;;;;5045043;28;20049;-80
2023/12/19 11:25:38;;;;;;;13.23;9.17;;;8.90;99.90;;;;;;5044070;28;20062;-81
2023/12/19 11:28:05;;;;;;;11.87;9.30;;;9.00;99.90;;;;;;5058609;28;20088;-81
2023/12/19 11:30:35;;;;;;;15.90;10.57;;;8.90;99.90;;;;;;5043679;28;20109;-81
2023/12/19 11:33:03;;;;;;;14.57;10.47;;;8.90;99.90;;;;;;5052949;28;20044;-81
2023/12/19 11:35:29;;;;;;;15.47;10.13;;;8.90;99.90;;;;;;5064652;28;20052;-80
2023/12/19 11:38:14;;;;;;;13.67;9.87;;;8.90;99.90;;;;;;5040895;28;20053;-81
2023/12/19 11:40:47;;;;;;;12.83;9.53;;;8.90;99.90;;;;;;5063941;28;20047;-81
2023/12/19 11:43:28;;;;;;;11.70;9.43;;;9.00;99.90;;;;;;5050195;28;20512;-81
2023/12/19 11:46:06;;;;;;;14.47;10.53;;;9.00;99.90;;;;;;5058068;28;20045;-81
2023/12/19 11:48:51;;;;;;;12.93;10.30;;;9.00;99.90;;;;;;5062756;28;20527;-82
2023/12/19 11:51:41;;;;;;;14.93;11.27;;;9.00;99.90;;;;;;5040751;28;20045;-81
2023/12/19 11:54:10;;;;;;;14.00;10.90;;;9.00;99.90;;;;;;5058779;28;20112;-82
2023/12/19 11:56:38;;;;;;;15.43;11.10;;;8.90;99.90;;;;;;5035721;28;20037;-82
2023/12/19 11:59:04;;;;;;;14.70;11.80;;;9.00;99.90;;;;;;5049306;28;20107;-82
2023/12/19 12:01:39;;;;;;;13.00;10.70;;;8.90;99.90;;;;;;5042409;28;20072;-82
2023/12/19 12:04:10;;;;;;;13.50;11.13;;;9.00;99.90;;;;;;5053142;28;20044;-82
2023/12/19 12:06:41;;;;;;;14.18;11.52;;;9.00;99.90;;;;;;5063823;28;20063;-82
2023/12/19 12:09:07;;;;;;;13.50;10.70;;;9.00;99.90;;;;;;5045728;28;20050;-83
2023/12/19 12:11:48;;;;;;;16.73;11.33;;;8.90;99.90;;;;;;5060474;28;20546;-82
2023/12/19 12:14:14;;;;;;;13.27;10.77;;;8.90;99.90;;;;;;5029286;28;20041;-83
2023/12/19 12:16:40;;;;;;;15.17;11.73;;;9.00;99.90;;;;;;5043868;28;20501;-81
2023/12/19 12:19:13;;;;;;;14.77;11.17;;;9.00;99.90;;;;;;5044562;28;20052;-82
2023/12/19 12:21:50;;;;;;;13.17;10.37;;;9.00;99.90;;;;;;5043987;28;20628;-80
2023/12/19 12:24:26;;;;;;;12.90;10.47;;;9.00;99.90;;;;;;5044340;28;20041;-81
2023/12/19 12:27:10;;;;;;;13.33;10.67;;;9.00;99.90;;;;;;5067341;28;20052;-81
2023/12/19 12:29:36;;;;;;;12.93;10.43;;;9.00;99.90;;;;;;5033874;28;20048;-85
2023/12/19 12:32:03;;;;;;;13.60;10.20;;;9.00;99.90;;;;;;5057854;28;20132;-82
2023/12/19 12:34:32;;;;;;;13.23;9.90;;;9.00;99.90;;;;;;5017174;28;20041;-82
2023/12/19 12:36:58;;;;;;;11.60;8.83;;;9.00;99.90;;;;;;5031695;28;20041;-82
2023/12/19 12:39:24;;;;;;;11.70;9.50;;;9.00;99.90;;;;;;5018066;28;20091;-82
2023/12/19 12:41:50;;;;;;;12.13;9.57;;;9.00;99.90;;;;;;5054053;28;20056;-82
2023/12/19 12:44:15;;;;;;;11.63;9.70;;;9.00;99.90;;;;;;5024747;28;20108;-82